Time;durP1;ratioP1;P1;durP2;ratioP2;P2;SDS_P1;SDS_P2;PMS_P1;PMS_P2;Temp;Humidity;BMP_temperature;BMP_pressure;BME280_temperature;BME280_humidity;BME280_pressure;Samples;Min_cycle;Max_cycle;Signal;HPM_P1;HPM_P2
2023/01/19 00:00:14;;;;;;;15.23;6.00;;;3.20;97.10;;;;;;5014949;28;20116;-84
2023/01/19 00:02:42;;;;;;;12.27;5.97;;;3.20;97.10;;;;;;5016285;28;20029;-83
2023/01/19 00:05:08;;;;;;;17.35;6.13;;;3.20;97.10;;;;;;5015384;28;20030;-83
2023/01/19 00:07:34;;;;;;;12.40;5.75;;;3.20;97.10;;;;;;5015066;28;20060;-84
2023/01/19 00:09:59;;;;;;;18.70;6.18;;;3.30;97.20;;;;;;5015024;28;20121;-84
2023/01/19 00:12:25;;;;;;;13.63;6.28;;;3.30;97.20;;;;;;5016425;28;20103;-85
2023/01/19 00:14:51;;;;;;;17.60;6.05;;;3.30;97.20;;;;;;5016570;28;20026;-84
2023/01/19 00:17:18;;;;;;;11.90;5.45;;;3.30;97.50;;;;;;5015298;28;20022;-87
2023/01/19 00:19:45;;;;;;;11.82;5.63;;;3.30;97.20;;;;;;5014253;28;20468;-84
2023/01/19 00:22:11;;;;;;;12.02;5.65;;;3.30;97.30;;;;;;5014418;28;20117;-84
2023/01/19 00:24:36;;;;;;;15.25;5.90;;;3.20;97.30;;;;;;5015794;28;20536;-84
2023/01/19 00:27:02;;;;;;;12.18;5.28;;;3.30;97.40;;;;;;5014781;28;20411;-85
2023/01/19 00:29:33;;;;;;;15.02;5.88;;;3.30;97.40;;;;;;5014868;28;20057;-85
2023/01/19 00:32:03;;;;;;;9.98;5.05;;;3.30;97.60;;;;;;5013424;28;20030;-85
2023/01/19 00:34:41;;;;;;;10.48;5.45;;;3.20;97.50;;;;;;5013344;28;20116;-84
2023/01/19 00:37:10;;;;;;;11.25;5.68;;;3.30;97.50;;;;;;5013514;28;20037;-85
2023/01/19 00:39:36;;;;;;;17.02;6.05;;;3.30;97.50;;;;;;5014047;28;20046;-85
2023/01/19 00:44:46;;;;;;;12.95;5.43;;;3.40;97.50;;;;;;5015149;28;20172;-85
2023/01/19 00:47:12;;;;;;;11.65;6.07;;;3.40;97.60;;;;;;5012764;28;20090;-83
2023/01/19 00:49:38;;;;;;;17.08;5.68;;;3.40;97.60;;;;;;5013460;28;20045;-84
2023/01/19 00:52:05;;;;;;;12.15;5.35;;;3.40;97.50;;;;;;5012873;28;20044;-83
2023/01/19 00:54:30;;;;;;;11.77;5.15;;;3.40;97.50;;;;;;5014367;28;20073;-82
2023/01/19 00:56:56;;;;;;;12.90;5.70;;;3.50;97.40;;;;;;5013284;28;20115;-84
2023/01/19 00:59:22;;;;;;;10.18;5.68;;;3.50;97.40;;;;;;5013706;28;20081;-83
2023/01/19 01:01:47;;;;;;;13.18;5.32;;;3.40;97.40;;;;;;5013470;28;20030;-84
2023/01/19 01:04:13;;;;;;;13.65;5.15;;;3.40;97.40;;;;;;5013282;28;20030;-82
2023/01/19 01:06:39;;;;;;;14.05;5.80;;;3.50;97.40;;;;;;5012903;28;20061;-83
2023/01/19 01:09:10;;;;;;;15.27;6.03;;;3.50;97.40;;;;;;5013502;28;20051;-83
2023/01/19 01:11:40;;;;;;;10.07;5.43;;;3.50;97.40;;;;;;5014306;28;20352;-83
2023/01/19 01:14:07;;;;;;;10.85;5.63;;;3.50;97.70;;;;;;5013315;28;20026;-85
2023/01/19 01:16:32;;;;;;;16.50;6.32;;;3.50;97.30;;;;;;5013651;28;20040;-82
2023/01/19 01:18:58;;;;;;;11.90;5.65;;;3.50;97.40;;;;;;5012458;28;20038;-83
2023/01/19 01:21:24;;;;;;;12.05;4.97;;;3.50;97.50;;;;;;5013325;28;20057;-83
2023/01/19 01:23:49;;;;;;;11.25;5.38;;;3.50;97.50;;;;;;5013316;28;20454;-83
2023/01/19 01:26:17;;;;;;;14.80;5.50;;;3.40;97.50;;;;;;5013479;28;20054;-83
2023/01/19 01:28:43;;;;;;;;;;;3.50;97.50;;;;;;5012476;28;20554;-85
2023/01/19 01:31:09;;;;;;;11.40;5.13;;;3.60;97.40;;;;;;5012028;28;19950;-80
2023/01/19 01:33:34;;;;;;;12.80;5.50;;;3.50;97.40;;;;;;5013336;28;20044;-82
2023/01/19 01:36:00;;;;;;;11.98;5.65;;;3.50;97.50;;;;;;5014497;28;20087;-83
2023/01/19 01:38:26;;;;;;;11.73;5.10;;;3.50;97.50;;;;;;5015726;28;20026;-83
2023/01/19 01:40:51;;;;;;;13.25;5.55;;;3.40;97.50;;;;;;5013926;28;20046;-84
2023/01/19 01:43:18;;;;;;;12.95;6.10;;;3.50;97.60;;;;;;5015736;28;20045;-80
2023/01/19 01:45:44;;;;;;;11.55;5.75;;;3.40;97.50;;;;;;5014628;28;20030;-82
2023/01/19 01:48:17;;;;;;;14.35;5.40;;;3.50;97.60;;;;;;5013532;28;20022;-81
2023/01/19 01:53:44;;;;;;;10.52;5.28;;;3.40;97.60;;;;;;5012761;28;20041;-80
2023/01/19 01:56:14;;;;;;;10.05;5.47;;;3.40;97.60;;;;;;5012183;28;20034;-83
2023/01/19 01:58:40;;;;;;;9.48;5.68;;;3.30;97.70;;;;;;5012871;28;20045;-81
2023/01/19 02:03:53;;;;;;;13.52;5.45;;;3.40;97.80;;;;;;5012470;28;20044;-81
2023/01/19 02:06:20;;;;;;;13.18;5.70;;;3.40;97.80;;;;;;5013347;28;20045;-82
2023/01/19 02:14:21;;;;;;;11.88;5.70;;;3.40;97.90;;;;;;5014355;28;20349;-82
2023/01/19 02:16:47;;;;;;;13.48;4.82;;;3.40;98.00;;;;;;5011808;28;20112;-81
2023/01/19 02:19:20;;;;;;;7.85;4.75;;;3.40;98.00;;;;;;5013851;28;20558;-81
2023/01/19 02:22:11;;;;;;;13.70;6.50;;;3.40;97.80;;;;;;5014861;28;20044;-83
2023/01/19 02:24:37;;;;;;;10.25;5.20;;;3.50;97.80;;;;;;5020460;28;20094;-82
2023/01/19 02:27:03;;;;;;;14.52;5.75;;;3.40;97.90;;;;;;5022115;28;20046;-83
2023/01/19 02:29:30;;;;;;;9.10;4.95;;;3.50;97.90;;;;;;5021001;28;20022;-81
2023/01/19 02:31:58;;;;;;;15.68;5.70;;;3.50;97.80;;;;;;5016256;28;20038;-83
2023/01/19 02:34:25;;;;;;;10.95;5.85;;;3.50;97.80;;;;;;5011808;28;20061;-82
2023/01/19 02:37:10;;;;;;;12.27;5.82;;;3.50;97.90;;;;;;4998385;28;20042;-83
2023/01/19 02:39:44;;;;;;;9.73;5.25;;;3.50;97.70;;;;;;4994496;28;20491;-82
2023/01/19 02:42:26;;;;;;;10.63;4.88;;;3.50;97.70;;;;;;4997647;28;20029;-82
2023/01/19 02:44:54;;;;;;;9.27;5.25;;;3.50;97.80;;;;;;4996140;28;20041;-82
2023/01/19 02:47:20;;;;;;;;;;;3.50;97.90;;;;;;4993615;28;20173;-84
2023/01/19 02:49:56;;;;;;;12.43;5.88;;;3.50;97.80;;;;;;4995613;28;19956;-81
2023/01/19 02:52:22;;;;;;;11.73;5.70;;;3.50;97.80;;;;;;4995730;28;20060;-84
2023/01/19 02:55:00;;;;;;;13.38;5.05;;;3.40;98.00;;;;;;4998565;28;20047;-82
2023/01/19 02:57:28;;;;;;;;;;;3.50;98.00;;;;;;4994715;28;20038;-84
2023/01/19 03:00:28;;;;;;;9.80;5.53;;;3.40;97.90;;;;;;4993871;28;19906;-81
2023/01/19 03:03:18;;;;;;;12.23;5.28;;;3.40;97.90;;;;;;4991596;28;20064;-82
2023/01/19 03:05:52;;;;;;;16.60;5.47;;;3.50;98.00;;;;;;4992594;28;20101;-81
2023/01/19 03:08:27;;;;;;;13.90;5.03;;;3.50;98.00;;;;;;4991835;28;20486;-80
2023/01/19 03:11:04;;;;;;;9.60;5.07;;;3.50;98.00;;;;;;4992893;28;20027;-82
2023/01/19 03:13:55;;;;;;;10.23;5.38;;;3.50;98.00;;;;;;4990798;28;20057;-80
2023/01/19 03:16:42;;;;;;;14.23;5.75;;;3.50;98.00;;;;;;4992044;28;20117;-82
2023/01/19 03:19:20;;;;;;;;;;;3.50;98.10;;;;;;4992961;28;20105;-83
2023/01/19 03:21:48;;;;;;;;;;;3.40;98.10;;;;;;4993644;28;19921;-83
2023/01/19 03:24:16;;;;;;;15.10;5.57;;;3.50;98.10;;;;;;4992759;28;19920;-84
2023/01/19 03:26:46;;;;;;;15.32;5.25;;;3.50;98.10;;;;;;4995385;28;20112;-82
2023/01/19 03:29:13;;;;;;;12.15;5.68;;;3.50;98.10;;;;;;4995469;28;20022;-84
2023/01/19 03:31:42;;;;;;;10.63;5.85;;;3.50;98.20;;;;;;4995511;28;20031;-82
2023/01/19 03:34:11;;;;;;;11.23;5.72;;;3.50;98.20;;;;;;4995828;28;20133;-82
2023/01/19 03:36:47;;;;;;;9.68;5.55;;;3.60;98.20;;;;;;4995973;28;20030;-83
2023/01/19 03:39:20;;;;;;;11.93;5.60;;;3.60;98.10;;;;;;4994753;28;20018;-81
2023/01/19 03:41:48;;;;;;;12.98;5.30;;;3.60;98.20;;;;;;4995300;28;20022;-82
2023/01/19 03:44:15;;;;;;;12.23;5.28;;;3.60;98.20;;;;;;4995005;28;20026;-84
2023/01/19 03:46:42;;;;;;;11.52;5.93;;;3.70;98.20;;;;;;4996093;28;20468;-83
2023/01/19 03:49:08;;;;;;;12.10;6.20;;;3.70;98.10;;;;;;4996582;28;20042;-81
2023/01/19 03:51:38;;;;;;;11.32;5.25;;;3.70;98.20;;;;;;4996518;28;20117;-81
2023/01/19 03:54:05;;;;;;;14.38;5.68;;;3.70;98.20;;;;;;4996421;28;20030;-85
2023/01/19 03:56:33;;;;;;;11.65;5.88;;;3.70;98.30;;;;;;4997895;28;20022;-82
2023/01/19 03:59:00;;;;;;;11.88;5.53;;;3.80;98.20;;;;;;4997680;28;20058;-82
2023/01/19 04:01:26;;;;;;;10.07;5.47;;;3.80;98.20;;;;;;4998376;28;20081;-83
2023/01/19 04:03:52;;;;;;;16.70;5.55;;;3.80;98.10;;;;;;4996756;28;20480;-83
2023/01/19 04:06:19;;;;;;;10.73;5.40;;;3.80;98.20;;;;;;4998750;28;20049;-84
2023/01/19 04:08:47;;;;;;;9.20;5.13;;;3.80;98.20;;;;;;5005071;28;20026;-83
2023/01/19 04:11:13;;;;;;;11.15;5.82;;;3.90;98.20;;;;;;4997808;28;20291;-83
2023/01/19 04:13:39;;;;;;;14.23;5.70;;;3.90;98.10;;;;;;4999569;28;20030;-84
2023/01/19 04:16:05;;;;;;;13.55;5.75;;;3.90;98.10;;;;;;4999035;28;20023;-84
2023/01/19 04:18:32;;;;;;;10.02;5.88;;;4.00;98.00;;;;;;4999916;28;20106;-81
2023/01/19 04:21:03;;;;;;;12.00;5.80;;;4.00;98.00;;;;;;4997899;28;20057;-79
2023/01/19 04:23:28;;;;;;;18.17;5.63;;;3.90;98.00;;;;;;4998653;28;20465;-79
2023/01/19 04:25:58;;;;;;;14.05;5.65;;;3.90;98.00;;;;;;4999760;28;20054;-82
2023/01/19 04:28:32;;;;;;;10.05;5.50;;;3.90;98.10;;;;;;4999744;28;20031;-80
2023/01/19 04:30:58;;;;;;;12.00;6.10;;;4.00;98.10;;;;;;5003875;28;20424;-78
2023/01/19 04:33:24;;;;;;;13.45;6.07;;;3.90;98.20;;;;;;5002473;28;20037;-79
2023/01/19 04:35:51;;;;;;;13.23;5.40;;;3.90;98.20;;;;;;4999375;28;20109;-78
2023/01/19 04:38:18;;;;;;;12.98;5.32;;;4.00;98.20;;;;;;4998224;28;20073;-76
2023/01/19 04:40:44;;;;;;;13.52;5.63;;;3.90;98.30;;;;;;4997147;28;20108;-76
2023/01/19 04:43:10;;;;;;;12.60;5.20;;;4.20;98.30;;;;;;4995660;28;20550;-77
2023/01/19 04:45:36;;;;;;;13.25;5.47;;;3.90;98.20;;;;;;4998957;28;20026;-78
2023/01/19 04:48:05;;;;;;;11.27;5.80;;;4.00;98.30;;;;;;4996854;28;20026;-79
2023/01/19 04:50:31;;;;;;;10.05;5.28;;;3.80;98.40;;;;;;4997911;28;20122;-79
2023/01/19 04:52:57;;;;;;;17.35;6.03;;;4.00;98.40;;;;;;4999223;28;20046;-77
2023/01/19 04:55:23;;;;;;;14.43;5.70;;;4.00;98.40;;;;;;4999308;28;20378;-77
2023/01/19 04:57:49;;;;;;;10.07;5.63;;;4.00;98.40;;;;;;4996023;28;20070;-78
2023/01/19 05:00:15;;;;;;;13.35;5.55;;;4.00;98.40;;;;;;4993813;28;20265;-78
2023/01/19 05:02:42;;;;;;;11.00;5.60;;;4.10;98.40;;;;;;4995249;28;20026;-78
2023/01/19 05:05:09;;;;;;;12.32;5.93;;;4.00;98.30;;;;;;4994608;28;20042;-78
2023/01/19 05:07:34;;;;;;;19.27;5.55;;;4.00;98.30;;;;;;4994946;28;20125;-78
2023/01/19 05:10:00;;;;;;;8.88;5.05;;;4.10;98.40;;;;;;4994049;28;20480;-77
2023/01/19 05:12:26;;;;;;;13.45;5.63;;;4.10;98.40;;;;;;4993493;28;20038;-78
2023/01/19 05:14:51;;;;;;;12.02;6.18;;;4.10;98.30;;;;;;4993288;28;20344;-78
2023/01/19 05:17:17;;;;;;;13.80;5.38;;;4.10;98.30;;;;;;4994728;28;20122;-79
2023/01/19 05:19:43;;;;;;;12.23;6.03;;;4.10;98.20;;;;;;4995563;28;20065;-81
2023/01/19 05:22:09;;;;;;;12.82;6.05;;;4.10;98.30;;;;;;4994708;28;20042;-80
2023/01/19 05:24:35;;;;;;;13.23;5.40;;;4.00;98.30;;;;;;4995958;28;20076;-83
2023/01/19 05:27:00;;;;;;;13.23;5.60;;;4.10;98.30;;;;;;4999090;28;20372;-81
2023/01/19 05:29:26;;;;;;;11.18;5.90;;;4.20;98.30;;;;;;5000100;28;20368;-83
2023/01/19 05:31:52;;;;;;;14.77;5.22;;;4.20;98.30;;;;;;4997016;28;20046;-80
2023/01/19 05:34:17;;;;;;;11.45;5.97;;;4.20;98.20;;;;;;4996605;28;20062;-82
2023/01/19 05:36:43;;;;;;;12.13;5.57;;;4.20;98.30;;;;;;4996723;28;20133;-81
2023/01/19 05:39:09;;;;;;;14.55;6.00;;;4.30;98.30;;;;;;4996332;28;20022;-79
2023/01/19 05:41:35;;;;;;;12.20;5.10;;;4.20;98.20;;;;;;4997747;28;20052;-83
2023/01/19 05:44:01;;;;;;;12.43;5.32;;;4.20;98.20;;;;;;4998187;28;20041;-80
2023/01/19 05:46:27;;;;;;;10.80;5.70;;;4.10;98.30;;;;;;4998394;28;20022;-82
2023/01/19 05:48:52;;;;;;;11.98;5.55;;;4.30;98.50;;;;;;4996341;28;20061;-83
2023/01/19 05:51:18;;;;;;;15.13;5.90;;;4.20;98.40;;;;;;4994978;28;20062;-81
2023/01/19 05:53:43;;;;;;;12.63;5.28;;;4.30;98.60;;;;;;4999250;28;20018;-85
2023/01/19 05:56:10;;;;;;;11.80;5.85;;;4.30;98.30;;;;;;4995925;28;20033;-83
2023/01/19 05:58:38;;;;;;;9.98;5.40;;;4.30;98.20;;;;;;4995288;28;20175;-79
2023/01/19 06:01:06;;;;;;;12.07;5.35;;;4.20;98.20;;;;;;5013585;28;20038;-81
2023/01/19 06:03:33;;;;;;;;;;;4.30;98.20;;;;;;5014615;28;20034;-82
2023/01/19 06:06:01;;;;;;;9.30;4.68;;;4.40;98.10;;;;;;5013689;28;19914;-82
2023/01/19 06:08:28;;;;;;;12.50;5.63;;;4.40;98.10;;;;;;5013053;28;20036;-84
2023/01/19 06:10:54;;;;;;;9.02;4.60;;;4.40;98.10;;;;;;5014143;28;20034;-85
2023/01/19 06:13:21;;;;;;;12.18;5.22;;;4.40;98.00;;;;;;5002486;28;20038;-86
2023/01/19 06:15:47;;;;;;;13.35;5.82;;;4.40;97.90;;;;;;4993860;28;20046;-84
2023/01/19 06:18:15;;;;;;;12.48;5.60;;;4.50;98.00;;;;;;4994354;28;20101;-84
2023/01/19 06:20:41;;;;;;;8.57;4.90;;;4.50;97.90;;;;;;4995758;28;20073;-82
2023/01/19 06:23:07;;;;;;;11.30;5.43;;;4.50;98.10;;;;;;4996651;28;20026;-84
2023/01/19 06:25:33;;;;;;;14.00;4.97;;;4.60;97.80;;;;;;5005146;28;20054;-84
2023/01/19 06:27:59;;;;;;;12.30;5.20;;;4.60;97.70;;;;;;5003681;28;20461;-84
2023/01/19 06:30:25;;;;;;;10.50;5.45;;;4.60;97.90;;;;;;5004779;28;20515;-84
2023/01/19 06:32:52;;;;;;;10.13;4.32;;;4.50;97.70;;;;;;4995532;28;20023;-80
2023/01/19 06:35:18;;;;;;;10.73;4.57;;;4.70;97.70;;;;;;4995394;28;20034;-79
2023/01/19 06:37:43;;;;;;;10.75;4.85;;;4.60;97.70;;;;;;5000223;28;20081;-82
2023/01/19 06:40:10;;;;;;;9.30;4.57;;;4.50;97.70;;;;;;4999007;28;20130;-81
2023/01/19 06:42:36;;;;;;;8.40;4.37;;;4.60;97.70;;;;;;4995679;28;20034;-80
2023/01/19 06:45:02;;;;;;;10.15;4.70;;;4.70;97.70;;;;;;4992372;28;20034;-81
2023/01/19 06:47:28;;;;;;;9.35;4.75;;;4.60;97.50;;;;;;4992354;28;20056;-80
2023/01/19 06:49:53;;;;;;;10.68;4.47;;;4.60;97.50;;;;;;4991792;28;20046;-79
2023/01/19 06:52:19;;;;;;;11.55;4.28;;;4.60;97.50;;;;;;4991270;28;20038;-82
2023/01/19 06:54:45;;;;;;;11.32;4.70;;;4.70;97.50;;;;;;4990921;28;20049;-81
2023/01/19 06:57:12;;;;;;;9.43;4.30;;;4.70;97.30;;;;;;4992059;28;20114;-81
2023/01/19 06:59:38;;;;;;;13.68;4.85;;;4.60;97.30;;;;;;4991312;28;20026;-82
2023/01/19 07:02:04;;;;;;;11.70;4.65;;;4.70;97.40;;;;;;4990527;28;20200;-80
2023/01/19 07:04:30;;;;;;;12.55;5.15;;;4.70;97.40;;;;;;4990262;28;20034;-80
2023/01/19 07:06:56;;;;;;;11.88;4.38;;;4.90;97.40;;;;;;4991735;28;20030;-80
2023/01/19 07:09:23;;;;;;;10.10;4.65;;;4.80;97.30;;;;;;4990629;28;20045;-80
2023/01/19 07:11:49;;;;;;;11.82;5.30;;;4.80;97.30;;;;;;4992103;28;20512;-81
2023/01/19 07:14:15;;;;;;;11.70;5.15;;;4.70;97.10;;;;;;4991424;28;20121;-80
2023/01/19 07:16:41;;;;;;;13.15;5.05;;;4.80;97.30;;;;;;4990474;28;20121;-80
2023/01/19 07:19:09;;;;;;;12.38;5.47;;;4.80;97.20;;;;;;4990681;28;20030;-79
2023/01/19 07:21:35;;;;;;;9.95;4.32;;;4.80;97.10;;;;;;4990704;28;20065;-79
2023/01/19 07:24:01;;;;;;;8.82;4.65;;;4.80;97.20;;;;;;4991642;28;20065;-79
2023/01/19 07:26:27;;;;;;;8.50;4.07;;;4.90;97.20;;;;;;4991829;28;20043;-83
2023/01/19 07:28:53;;;;;;;7.32;4.20;;;5.00;97.20;;;;;;4989660;28;20023;-85
2023/01/19 07:31:19;;;;;;;10.85;4.85;;;4.90;97.10;;;;;;4991127;28;20058;-78
2023/01/19 07:33:45;;;;;;;7.30;4.10;;;5.00;97.10;;;;;;4991005;28;20432;-77
2023/01/19 07:36:11;;;;;;;12.57;4.35;;;5.00;97.10;;;;;;4991058;28;20026;-75
2023/01/19 07:38:37;;;;;;;7.25;4.28;;;4.90;97.00;;;;;;4990411;28;20034;-75
2023/01/19 07:41:04;;;;;;;11.90;4.68;;;5.00;97.00;;;;;;4991222;28;20042;-76
2023/01/19 07:43:31;;;;;;;13.05;4.88;;;5.00;96.90;;;;;;4989858;28;20456;-76
2023/01/19 07:46:01;;;;;;;6.90;4.32;;;4.90;97.00;;;;;;4990996;28;20035;-76
2023/01/19 07:48:27;;;;;;;12.20;5.18;;;4.90;97.00;;;;;;4990790;28;20468;-75
2023/01/19 07:50:53;;;;;;;11.13;4.85;;;4.90;97.00;;;;;;4991073;28;20040;-75
2023/01/19 07:53:19;;;;;;;10.48;4.47;;;4.90;97.10;;;;;;4991021;28;20042;-83
2023/01/19 07:55:45;;;;;;;9.13;4.72;;;4.90;97.10;;;;;;4990110;28;20030;-83
2023/01/19 07:58:11;;;;;;;11.65;4.43;;;4.90;97.40;;;;;;4990163;28;20479;-86
2023/01/19 08:00:38;;;;;;;22.52;5.40;;;5.00;97.20;;;;;;4991586;28;20468;-87
2023/01/19 08:03:04;;;;;;;9.43;4.53;;;5.00;97.40;;;;;;4992175;28;20030;-87
2023/01/19 08:05:31;;;;;;;8.00;4.05;;;4.90;97.20;;;;;;4992673;28;20023;-78
2023/01/19 08:07:57;;;;;;;8.63;4.57;;;5.00;97.20;;;;;;4990734;28;20037;-80
2023/01/19 08:10:27;;;;;;;9.90;4.93;;;4.90;97.10;;;;;;4991728;28;20045;-85
2023/01/19 08:12:54;;;;;;;8.00;4.38;;;5.00;97.20;;;;;;4992447;28;20416;-85
2023/01/19 08:15:22;;;;;;;8.25;4.63;;;5.00;97.10;;;;;;4993834;28;20045;-78
2023/01/19 08:17:57;;;;;;;10.20;4.75;;;5.00;97.10;;;;;;4995598;28;20468;-83
2023/01/19 08:20:23;;;;;;;8.40;4.10;;;5.00;97.10;;;;;;4994824;28;20034;-78
2023/01/19 08:22:49;;;;;;;9.63;4.63;;;5.00;97.10;;;;;;4994436;28;20473;-78
2023/01/19 08:25:14;;;;;;;7.70;4.25;;;5.10;97.00;;;;;;4994267;28;20591;-81
2023/01/19 08:27:40;;;;;;;8.65;3.42;;;5.00;96.80;;;;;;4994480;28;20042;-77
2023/01/19 08:30:06;;;;;;;11.77;4.43;;;5.00;96.80;;;;;;4994373;28;20515;-77
2023/01/19 08:32:32;;;;;;;18.38;7.35;;;5.00;96.90;;;;;;4994956;28;20334;-79
2023/01/19 08:34:57;;;;;;;12.13;4.60;;;5.10;96.90;;;;;;4994151;28;20048;-78
2023/01/19 08:37:23;;;;;;;9.35;3.95;;;5.00;96.80;;;;;;4996903;28;20108;-81
2023/01/19 08:39:49;;;;;;;13.18;5.57;;;5.00;96.80;;;;;;4995566;28;20030;-81
2023/01/19 08:42:15;;;;;;;9.35;4.15;;;5.20;96.90;;;;;;5000187;28;20033;-78
2023/01/19 08:44:40;;;;;;;11.93;4.70;;;5.00;96.90;;;;;;4994728;28;20483;-76
2023/01/19 08:47:07;;;;;;;9.40;3.83;;;5.00;97.00;;;;;;4999410;28;20496;-79
2023/01/19 08:49:34;;;;;;;9.63;4.75;;;4.90;97.00;;;;;;4998833;28;20073;-82
2023/01/19 08:52:01;;;;;;;66.03;30.80;;;4.90;97.00;;;;;;4996009;28;20480;-79
2023/01/19 08:54:27;;;;;;;9.90;5.75;;;5.00;97.10;;;;;;4996473;28;20471;-81
2023/01/19 08:56:53;;;;;;;7.40;4.20;;;5.00;97.00;;;;;;4998500;28;20022;-81
2023/01/19 08:59:20;;;;;;;13.55;5.57;;;5.10;97.10;;;;;;4995876;28;20108;-79
2023/01/19 09:01:45;;;;;;;7.88;4.10;;;5.10;97.10;;;;;;4994762;28;20030;-82
2023/01/19 09:04:11;;;;;;;6.25;3.33;;;5.00;97.20;;;;;;4996168;28;20479;-81
2023/01/19 09:06:37;;;;;;;8.77;4.40;;;4.90;97.50;;;;;;4996699;28;20046;-78
2023/01/19 09:09:02;;;;;;;9.85;4.10;;;4.90;97.80;;;;;;4998919;28;20022;-79
2023/01/19 09:11:29;;;;;;;9.32;4.22;;;4.80;98.00;;;;;;4998407;28;20065;-77
2023/01/19 09:13:55;;;;;;;7.03;4.07;;;4.80;98.00;;;;;;4994806;28;20367;-77
2023/01/19 09:16:21;;;;;;;9.80;4.70;;;4.80;98.30;;;;;;4999326;28;20468;-76
2023/01/19 09:18:46;;;;;;;7.78;4.43;;;4.80;98.50;;;;;;4996732;28;20053;-78
2023/01/19 09:21:12;;;;;;;5.60;3.80;;;4.90;98.60;;;;;;4998714;28;20461;-79
2023/01/19 09:23:38;;;;;;;9.90;4.15;;;5.00;99.00;;;;;;4998690;28;20027;-79
2023/01/19 09:26:05;;;;;;;13.27;4.20;;;4.90;99.00;;;;;;4995777;28;20532;-78
2023/01/19 09:28:31;;;;;;;10.27;5.00;;;5.00;99.00;;;;;;5000487;28;20061;-76
2023/01/19 09:30:56;;;;;;;7.28;4.43;;;5.00;99.10;;;;;;4994060;28;20031;-78
2023/01/19 09:33:23;;;;;;;8.25;4.78;;;4.90;99.20;;;;;;4997628;28;20034;-80
2023/01/19 09:35:50;;;;;;;8.10;4.15;;;5.10;99.50;;;;;;4995493;28;20065;-83
2023/01/19 09:38:17;;;;;;;10.60;5.53;;;4.90;99.40;;;;;;4996985;28;20066;-80
2023/01/19 09:40:48;;;;;;;9.20;4.72;;;4.80;99.70;;;;;;4996178;28;20061;-81
2023/01/19 09:43:41;;;;;;;7.30;4.22;;;4.90;99.70;;;;;;4995991;28;20069;-78
2023/01/19 09:46:12;;;;;;;10.20;5.05;;;4.90;99.80;;;;;;4993977;28;20027;-78
2023/01/19 09:48:37;;;;;;;13.70;6.30;;;5.00;99.70;;;;;;4995445;28;20026;-79
2023/01/19 09:51:06;;;;;;;16.70;7.13;;;5.30;99.80;;;;;;4997280;28;20031;-78
2023/01/19 09:53:32;;;;;;;9.93;5.18;;;4.90;99.90;;;;;;5002681;28;20018;-79
2023/01/19 09:55:57;;;;;;;8.15;4.47;;;5.00;99.90;;;;;;5005139;28;20092;-83
2023/01/19 09:58:23;;;;;;;8.63;5.28;;;5.00;99.90;;;;;;4998459;28;20092;-82
2023/01/19 10:00:59;;;;;;;8.65;4.57;;;4.90;99.90;;;;;;4992762;28;20043;-80
2023/01/19 10:03:25;;;;;;;8.13;4.82;;;4.90;99.90;;;;;;4992708;28;20111;-82
2023/01/19 10:06:08;;;;;;;10.60;4.72;;;5.00;99.90;;;;;;4992199;28;20022;-82
2023/01/19 10:08:51;;;;;;;9.40;4.38;;;5.00;99.90;;;;;;4994512;28;20081;-79
2023/01/19 10:11:29;;;;;;;9.13;5.07;;;4.90;99.90;;;;;;4993081;28;20101;-79
2023/01/19 10:13:56;;;;;;;10.18;4.60;;;4.90;99.90;;;;;;4994785;28;20030;-82
2023/01/19 10:16:57;;;;;;;8.30;4.67;;;4.90;99.90;;;;;;4997136;28;20031;-85
2023/01/19 10:19:31;;;;;;;8.40;5.00;;;5.00;99.90;;;;;;4994676;28;20030;-85
2023/01/19 10:21:59;;;;;;;8.70;4.88;;;5.00;99.90;;;;;;4994249;28;20035;-82
2023/01/19 10:24:37;;;;;;;9.88;5.20;;;4.80;99.90;;;;;;4997028;28;20110;-83
2023/01/19 10:27:09;;;;;;;7.35;4.20;;;4.90;99.90;;;;;;4994605;28;20384;-80
2023/01/19 10:29:36;;;;;;;9.98;5.35;;;4.90;99.90;;;;;;4998400;28;20072;-79
2023/01/19 10:32:16;;;;;;;11.93;6.50;;;4.90;99.90;;;;;;4998564;28;20030;-79
2023/01/19 10:34:42;;;;;;;7.97;5.20;;;5.00;99.90;;;;;;4999494;28;20121;-80
2023/01/19 10:37:20;;;;;;;8.13;4.40;;;5.00;99.90;;;;;;4997167;28;20132;-81
2023/01/19 10:39:52;;;;;;;6.28;4.07;;;5.00;99.90;;;;;;4992497;28;20081;-81
2023/01/19 10:42:17;;;;;;;10.48;4.90;;;4.90;99.90;;;;;;4991285;28;20023;-80
2023/01/19 10:44:44;;;;;;;8.50;4.65;;;4.90;99.90;;;;;;4992797;28;20045;-82
2023/01/19 10:47:16;;;;;;;5.35;3.67;;;5.00;99.90;;;;;;4992687;28;20035;-80
2023/01/19 10:49:43;;;;;;;8.20;4.43;;;5.00;99.90;;;;;;4992674;28;20026;-79
2023/01/19 10:52:32;;;;;;;6.28;3.72;;;5.00;99.90;;;;;;4993492;28;20116;-81
2023/01/19 10:54:59;;;;;;;5.82;4.20;;;5.00;99.90;;;;;;4991506;28;20049;-85
2023/01/19 10:57:31;;;;;;;8.40;4.32;;;5.10;99.90;;;;;;4991923;28;20073;-82
2023/01/19 10:59:57;;;;;;;12.35;4.15;;;5.20;99.90;;;;;;4992599;28;20041;-81
2023/01/19 11:02:28;;;;;;;8.73;4.78;;;5.20;99.90;;;;;;4991962;28;20030;-79
2023/01/19 11:04:59;;;;;;;7.45;4.20;;;5.20;99.90;;;;;;4992030;28;20372;-78
2023/01/19 11:07:25;;;;;;;5.32;3.85;;;5.20;99.90;;;;;;4994725;28;20037;-81
2023/01/19 11:10:14;;;;;;;7.65;4.50;;;5.30;99.90;;;;;;4991065;28;20026;-82
2023/01/19 11:12:46;;;;;;;7.40;3.95;;;5.30;99.90;;;;;;4991270;28;20031;-80
2023/01/19 11:15:15;;;;;;;9.57;4.18;;;5.30;99.90;;;;;;4990194;28;20054;-80
2023/01/19 11:17:44;;;;;;;6.50;3.90;;;5.40;99.90;;;;;;4991966;28;20097;-79
2023/01/19 11:20:26;;;;;;;6.00;3.63;;;5.40;99.90;;;;;;4991153;28;20040;-80
2023/01/19 11:23:17;;;;;;;7.85;4.22;;;5.40;99.90;;;;;;4991743;28;20045;-81
2023/01/19 11:25:48;;;;;;;7.32;4.18;;;5.40;99.90;;;;;;4990923;28;20058;-80
2023/01/19 11:28:52;;;;;;;12.38;6.35;;;5.50;99.90;;;;;;4990365;28;20098;-81
2023/01/19 11:31:27;;;;;;;9.13;4.47;;;5.60;99.90;;;;;;4988925;28;20093;-82
2023/01/19 11:33:54;;;;;;;13.05;4.55;;;5.60;99.90;;;;;;4990986;28;20046;-80
2023/01/19 11:36:26;;;;;;;8.93;4.03;;;5.60;99.90;;;;;;4991223;28;20038;-80
2023/01/19 11:38:54;;;;;;;7.30;3.83;;;5.60;99.90;;;;;;4991760;28;20022;-78
2023/01/19 11:41:20;;;;;;;;;;;5.70;99.90;;;;;;4991594;28;20038;-79
2023/01/19 11:43:50;;;;;;;6.32;3.25;;;5.60;99.90;;;;;;4992564;28;19926;-78
2023/01/19 11:46:17;;;;;;;8.40;4.45;;;5.70;99.90;;;;;;4991524;28;20030;-78
2023/01/19 11:48:46;;;;;;;7.78;3.58;;;5.80;99.90;;;;;;4993407;28;20030;-77
2023/01/19 11:51:21;;;;;;;6.25;2.90;;;5.80;99.90;;;;;;4994650;28;20022;-76
2023/01/19 11:53:51;;;;;;;6.75;3.70;;;5.90;99.90;;;;;;4995101;28;20018;-79
2023/01/19 11:56:20;;;;;;;9.85;3.40;;;5.90;99.90;;;;;;4994583;28;20121;-78
2023/01/19 11:58:46;;;;;;;11.45;5.05;;;6.00;99.90;;;;;;4995106;28;20034;-79
2023/01/19 12:01:34;;;;;;;10.48;4.25;;;5.90;99.90;;;;;;4993415;28;20048;-79
2023/01/19 12:04:06;;;;;;;9.85;5.00;;;5.70;99.90;;;;;;4994688;28;20038;-80
2023/01/19 12:06:33;;;;;;;7.85;4.00;;;5.90;99.90;;;;;;4994696;28;20034;-80
2023/01/19 12:09:11;;;;;;;6.90;3.70;;;5.90;99.90;;;;;;4994830;28;20033;-90
2023/01/19 12:11:51;;;;;;;7.40;3.42;;;5.90;99.90;;;;;;4995481;28;20074;-82
2023/01/19 12:14:38;;;;;;;9.60;3.83;;;5.90;99.90;;;;;;4993312;28;20030;-79
2023/01/19 12:17:10;;;;;;;6.55;3.55;;;5.80;99.90;;;;;;4994680;28;20041;-80
2023/01/19 12:19:49;;;;;;;8.40;3.40;;;5.70;99.90;;;;;;4993614;28;20034;-83
2023/01/19 12:22:16;;;;;;;8.75;4.70;;;5.70;99.90;;;;;;4994912;28;20030;-80
2023/01/19 12:25:04;;;;;;;8.53;4.20;;;5.70;99.90;;;;;;4994647;28;20035;-79
2023/01/19 12:27:39;;;;;;;8.45;3.90;;;5.70;99.90;;;;;;4993918;28;20047;-86
2023/01/19 12:30:19;;;;;;;13.23;7.13;;;5.60;99.90;;;;;;4994226;28;20022;-80
2023/01/19 12:32:46;;;;;;;10.35;4.43;;;5.50;99.90;;;;;;4994870;28;20072;-81
2023/01/19 12:35:49;;;;;;;8.13;3.80;;;5.60;99.90;;;;;;4994515;28;20057;-80
2023/01/19 12:38:36;;;;;;;10.93;4.82;;;5.60;99.90;;;;;;4994529;28;20025;-81
2023/01/19 12:41:26;;;;;;;10.17;4.93;;;5.60;99.90;;;;;;4994020;28;20034;-82
2023/01/19 12:44:11;;;;;;;10.77;5.90;;;5.60;99.90;;;;;;4993775;28;20026;-80
2023/01/19 12:46:40;;;;;;;9.75;4.85;;;5.50;99.90;;;;;;4993309;28;20026;-81
2023/01/19 12:49:14;;;;;;;9.60;4.35;;;5.50;99.90;;;;;;4995582;28;20125;-80
2023/01/19 12:51:40;;;;;;;4.07;3.20;;;5.60;99.90;;;;;;4995606;28;20030;-81
2023/01/19 12:54:15;;;;;;;6.40;4.05;;;5.40;99.90;;;;;;4995096;28;20444;-81
2023/01/19 12:56:42;;;;;;;6.88;4.53;;;5.50;99.90;;;;;;4996125;28;20109;-85
2023/01/19 12:59:23;;;;;;;7.05;3.88;;;5.30;99.90;;;;;;5002899;28;20060;-85
2023/01/19 13:02:27;;;;;;;12.95;5.97;;;5.50;99.90;;;;;;5002937;28;20381;-84
2023/01/19 13:05:13;;;;;;;13.43;6.95;;;5.60;99.90;;;;;;5005051;28;20090;-85
2023/01/19 13:08:00;;;;;;;11.35;4.15;;;5.60;99.90;;;;;;4996395;28;20390;-79
2023/01/19 13:10:51;;;;;;;6.75;3.95;;;5.60;99.90;;;;;;4994585;28;20031;-78
2023/01/19 13:13:23;;;;;;;4.90;3.50;;;5.60;99.90;;;;;;4993693;28;20045;-77
2023/01/19 13:15:49;;;;;;;5.03;3.28;;;5.30;99.90;;;;;;4993203;28;20049;-77
2023/01/19 13:18:22;;;;;;;5.50;4.00;;;5.50;99.90;;;;;;4992174;28;20026;-78